sensor_id;sensor_type;location;lat;lon;timestamp;temperature;humidity
15455;DHT22;21057;51.024;7.540;2023-02-26T00:01:34;2.10;99.90
15455;DHT22;21057;51.024;7.540;2023-02-26T00:04:06;2.20;99.90
15455;DHT22;21057;51.024;7.540;2023-02-26T00:06:36;1.90;99.90
15455;DHT22;21057;51.024;7.540;2023-02-26T00:09:03;2.10;99.90
15455;DHT22;21057;51.024;7.540;2023-02-26T00:11:31;1.90;99.90
15455;DHT22;21057;51.024;7.540;2023-02-26T00:14:13;1.90;99.90
15455;DHT22;21057;51.024;7.540;2023-02-26T00:16:40;1.80;99.90
15455;DHT22;21057;51.024;7.540;2023-02-26T00:19:12;1.80;99.90
15455;DHT22;21057;51.024;7.540;2023-02-26T00:21:40;1.80;99.90
15455;DHT22;21057;51.024;7.540;2023-02-26T00:24:07;1.60;99.90
15455;DHT22;21057;51.024;7.540;2023-02-26T00:26:35;1.50;99.90
15455;DHT22;21057;51.024;7.540;2023-02-26T00:29:03;1.80;99.90
15455;DHT22;21057;51.024;7.540;2023-02-26T00:31:30;1.70;99.90
15455;DHT22;21057;51.024;7.540;2023-02-26T00:33:58;1.80;99.90
15455;DHT22;21057;51.024;7.540;2023-02-26T00:36:32;1.90;99.90
15455;DHT22;21057;51.024;7.540;2023-02-26T00:39:06;1.90;99.90
15455;DHT22;21057;51.024;7.540;2023-02-26T00:41:35;1.80;99.90
15455;DHT22;21057;51.024;7.540;2023-02-26T00:44:04;1.80;99.90
15455;DHT22;21057;51.024;7.540;2023-02-26T00:46:40;2.10;99.90
15455;DHT22;21057;51.024;7.540;2023-02-26T00:49:17;2.10;99.90
15455;DHT22;21057;51.024;7.540;2023-02-26T00:51:56;2.00;99.90
15455;DHT22;21057;51.024;7.540;2023-02-26T00:54:25;1.80;99.90
15455;DHT22;21057;51.024;7.540;2023-02-26T00:56:58;1.60;99.90
15455;DHT22;21057;51.024;7.540;2023-02-26T00:59:25;1.30;99.90
15455;DHT22;21057;51.024;7.540;2023-02-26T01:01:52;1.30;99.90
15455;DHT22;21057;51.024;7.540;2023-02-26T01:04:22;1.40;99.90
15455;DHT22;21057;51.024;7.540;2023-02-26T01:06:52;1.40;99.90
15455;DHT22;21057;51.024;7.540;2023-02-26T01:09:24;1.40;99.90
15455;DHT22;21057;51.024;7.540;2023-02-26T01:11:51;1.30;99.90
15455;DHT22;21057;51.024;7.540;2023-02-26T01:14:20;1.20;99.90
15455;DHT22;21057;51.024;7.540;2023-02-26T01:16:52;1.20;99.90
15455;DHT22;21057;51.024;7.540;2023-02-26T01:19:32;1.20;99.90
15455;DHT22;21057;51.024;7.540;2023-02-26T01:22:06;1.20;99.90
15455;DHT22;21057;51.024;7.540;2023-02-26T01:24:47;1.10;99.90
15455;DHT22;21057;51.024;7.540;2023-02-26T01:27:14;1.30;99.90
15455;DHT22;21057;51.024;7.540;2023-02-26T01:29:41;1.20;99.90
15455;DHT22;21057;51.024;7.540;2023-02-26T01:32:14;1.10;99.90
15455;DHT22;21057;51.024;7.540;2023-02-26T01:34:52;1.10;99.90
15455;DHT22;21057;51.024;7.540;2023-02-26T01:37:24;1.00;99.90
15455;DHT22;21057;51.024;7.540;2023-02-26T01:40:19;1.10;99.90
15455;DHT22;21057;51.024;7.540;2023-02-26T01:42:56;1.10;99.90
15455;DHT22;21057;51.024;7.540;2023-02-26T01:45:30;1.40;99.90
15455;DHT22;21057;51.024;7.540;2023-02-26T01:48:02;1.40;99.90
15455;DHT22;21057;51.024;7.540;2023-02-26T01:50:32;1.20;99.90
15455;DHT22;21057;51.024;7.540;2023-02-26T01:53:16;1.10;99.90
15455;DHT22;21057;51.024;7.540;2023-02-26T01:55:48;1.20;99.90
15455;DHT22;21057;51.024;7.540;2023-02-26T01:58:16;1.10;99.90
15455;DHT22;21057;51.024;7.540;2023-02-26T02:00:43;1.10;99.90
15455;DHT22;21057;51.024;7.540;2023-02-26T02:03:11;1.10;99.90
15455;DHT22;21057;51.024;7.540;2023-02-26T02:05:41;1.20;99.90
15455;DHT22;21057;51.024;7.540;2023-02-26T02:08:11;1.40;99.90
15455;DHT22;21057;51.024;7.540;2023-02-26T02:10:41;1.20;99.90
15455;DHT22;21057;51.024;7.540;2023-02-26T02:13:15;1.30;99.90
15455;DHT22;21057;51.024;7.540;2023-02-26T02:15:48;1.20;99.90
15455;DHT22;21057;51.024;7.540;2023-02-26T02:18:23;1.30;99.90
15455;DHT22;21057;51.024;7.540;2023-02-26T02:21:34;1.30;99.90
15455;DHT22;21057;51.024;7.540;2023-02-26T02:24:10;1.20;99.90
15455;DHT22;21057;51.024;7.540;2023-02-26T02:26:52;1.10;99.90
15455;DHT22;21057;51.024;7.540;2023-02-26T02:29:52;0.90;99.90
15455;DHT22;21057;51.024;7.540;2023-02-26T02:32:30;0.90;99.90
15455;DHT22;21057;51.024;7.540;2023-02-26T02:35:06;0.90;99.90
15455;DHT22;21057;51.024;7.540;2023-02-26T02:37:38;0.70;99.90
15455;DHT22;21057;51.024;7.540;2023-02-26T02:40:10;0.80;99.90
15455;DHT22;21057;51.024;7.540;2023-02-26T02:42:42;0.80;99.90
15455;DHT22;21057;51.024;7.540;2023-02-26T02:45:13;0.90;99.90
15455;DHT22;21057;51.024;7.540;2023-02-26T02:47:47;1.20;99.90
15455;DHT22;21057;51.024;7.540;2023-02-26T02:50:21;1.10;99.90
15455;DHT22;21057;51.024;7.540;2023-02-26T02:52:53;1.20;99.90
15455;DHT22;21057;51.024;7.540;2023-02-26T02:55:35;1.20;99.90
15455;DHT22;21057;51.024;7.540;2023-02-26T02:58:06;1.40;99.90
15455;DHT22;21057;51.024;7.540;2023-02-26T03:00:39;1.20;99.90
15455;DHT22;21057;51.024;7.540;2023-02-26T03:03:14;1.20;99.90
15455;DHT22;21057;51.024;7.540;2023-02-26T03:05:44;1.30;99.90
15455;DHT22;21057;51.024;7.540;2023-02-26T03:08:12;1.40;99.90
15455;DHT22;21057;51.024;7.540;2023-02-26T03:10:40;1.10;99.90
15455;DHT22;21057;51.024;7.540;2023-02-26T03:13:14;0.90;99.90
15455;DHT22;21057;51.024;7.540;2023-02-26T03:15:54;1.20;99.90
15455;DHT22;21057;51.024;7.540;2023-02-26T03:18:34;1.00;99.90
15455;DHT22;21057;51.024;7.540;2023-02-26T03:21:20;0.80;99.90
15455;DHT22;21057;51.024;7.540;2023-02-26T03:23:59;0.80;99.90
15455;DHT22;21057;51.024;7.540;2023-02-26T03:26:33;0.70;99.90
15455;DHT22;21057;51.024;7.540;2023-02-26T03:29:07;0.80;99.90
15455;DHT22;21057;51.024;7.540;2023-02-26T03:31:40;0.80;99.90
15455;DHT22;21057;51.024;7.540;2023-02-26T03:34:18;1.00;99.90
15455;DHT22;21057;51.024;7.540;2023-02-26T03:36:53;1.10;99.90
15455;DHT22;21057;51.024;7.540;2023-02-26T03:39:24;1.00;99.90
15455;DHT22;21057;51.024;7.540;2023-02-26T03:41:56;0.80;99.90
15455;DHT22;21057;51.024;7.540;2023-02-26T03:44:27;0.90;99.90
15455;DHT22;21057;51.024;7.540;2023-02-26T03:46:59;0.80;99.90
15455;DHT22;21057;51.024;7.540;2023-02-26T03:49:39;1.00;99.90
15455;DHT22;21057;51.024;7.540;2023-02-26T03:52:07;0.90;99.90
15455;DHT22;21057;51.024;7.540;2023-02-26T03:54:39;0.90;99.90
15455;DHT22;21057;51.024;7.540;2023-02-26T03:57:07;0.90;99.90
15455;DHT22;21057;51.024;7.540;2023-02-26T03:59:34;1.00;99.90
15455;DHT22;21057;51.024;7.540;2023-02-26T04:02:04;1.10;99.90
15455;DHT22;21057;51.024;7.540;2023-02-26T04:04:38;1.10;99.90
15455;DHT22;21057;51.024;7.540;2023-02-26T04:07:12;1.10;99.90
15455;DHT22;21057;51.024;7.540;2023-02-26T04:09:40;1.10;99.90
15455;DHT22;21057;51.024;7.540;2023-02-26T04:12:06;0.90;99.90
15455;DHT22;21057;51.024;7.540;2023-02-26T04:14:33;0.90;99.90
15455;DHT22;21057;51.024;7.540;2023-02-26T04:17:02;0.80;99.90
15455;DHT22;21057;51.024;7.540;2023-02-26T04:19:30;0.80;99.90
15455;DHT22;21057;51.024;7.540;2023-02-26T04:21:58;0.80;99.90
15455;DHT22;21057;51.024;7.540;2023-02-26T04:24:25;0.80;99.90
15455;DHT22;21057;51.024;7.540;2023-02-26T04:26:52;0.70;99.90
15455;DHT22;21057;51.024;7.540;2023-02-26T04:29:20;0.80;99.90
15455;DHT22;21057;51.024;7.540;2023-02-26T04:31:46;0.90;99.90
15455;DHT22;21057;51.024;7.540;2023-02-26T04:34:15;1.00;99.90
15455;DHT22;21057;51.024;7.540;2023-02-26T04:36:41;0.90;99.90
15455;DHT22;21057;51.024;7.540;2023-02-26T04:39:10;0.90;99.90
15455;DHT22;21057;51.024;7.540;2023-02-26T04:41:39;1.00;99.90
15455;DHT22;21057;51.024;7.540;2023-02-26T04:44:06;1.00;99.90
15455;DHT22;21057;51.024;7.540;2023-02-26T04:46:33;0.80;99.90
15455;DHT22;21057;51.024;7.540;2023-02-26T04:49:00;0.70;99.90
15455;DHT22;21057;51.024;7.540;2023-02-26T04:51:26;0.90;99.90
15455;DHT22;21057;51.024;7.540;2023-02-26T04:53:53;1.00;99.90
15455;DHT22;21057;51.024;7.540;2023-02-26T04:56:21;1.20;99.90
15455;DHT22;21057;51.024;7.540;2023-02-26T04:58:48;1.10;99.90
15455;DHT22;21057;51.024;7.540;2023-02-26T05:01:15;0.90;99.90
15455;DHT22;21057;51.024;7.540;2023-02-26T05:04:01;0.80;99.90
15455;DHT22;21057;51.024;7.540;2023-02-26T05:06:28;0.70;99.90
15455;DHT22;21057;51.024;7.540;2023-02-26T05:09:04;0.80;99.90
15455;DHT22;21057;51.024;7.540;2023-02-26T05:11:32;0.80;99.90
15455;DHT22;21057;51.024;7.540;2023-02-26T05:13:59;0.90;99.90
15455;DHT22;21057;51.024;7.540;2023-02-26T05:16:30;0.70;99.90
15455;DHT22;21057;51.024;7.540;2023-02-26T05:18:57;0.70;99.90
15455;DHT22;21057;51.024;7.540;2023-02-26T05:21:24;0.70;99.90
15455;DHT22;21057;51.024;7.540;2023-02-26T05:23:50;0.80;99.90
15455;DHT22;21057;51.024;7.540;2023-02-26T05:26:27;0.80;99.90
15455;DHT22;21057;51.024;7.540;2023-02-26T05:28:56;0.80;99.90
15455;DHT22;21057;51.024;7.540;2023-02-26T05:31:23;0.80;99.90
15455;DHT22;21057;51.024;7.540;2023-02-26T05:33:51;0.70;99.90
15455;DHT22;21057;51.024;7.540;2023-02-26T05:36:19;0.80;99.90
15455;DHT22;21057;51.024;7.540;2023-02-26T05:38:45;0.70;99.90
15455;DHT22;21057;51.024;7.540;2023-02-26T05:41:12;0.80;99.90
15455;DHT22;21057;51.024;7.540;2023-02-26T05:43:39;0.70;99.90
15455;DHT22;21057;51.024;7.540;2023-02-26T05:46:08;0.70;99.90
15455;DHT22;21057;51.024;7.540;2023-02-26T05:48:36;0.40;99.90
15455;DHT22;21057;51.024;7.540;2023-02-26T05:51:03;0.40;99.90
15455;DHT22;21057;51.024;7.540;2023-02-26T05:53:29;0.40;99.90
15455;DHT22;21057;51.024;7.540;2023-02-26T05:55:56;0.50;99.90
15455;DHT22;21057;51.024;7.540;2023-02-26T05:58:23;0.50;99.90
15455;DHT22;21057;51.024;7.540;2023-02-26T06:01:01;0.30;99.90
15455;DHT22;21057;51.024;7.540;2023-02-26T06:03:32;0.20;99.90
15455;DHT22;21057;51.024;7.540;2023-02-26T06:05:59;0.30;99.90
15455;DHT22;21057;51.024;7.540;2023-02-26T06:08:26;0.40;99.90
15455;DHT22;21057;51.024;7.540;2023-02-26T06:11:01;0.70;99.90
15455;DHT22;21057;51.024;7.540;2023-02-26T06:13:28;0.70;99.90
15455;DHT22;21057;51.024;7.540;2023-02-26T06:15:55;0.50;99.90
15455;DHT22;21057;51.024;7.540;2023-02-26T06:18:22;0.40;99.90
15455;DHT22;21057;51.024;7.540;2023-02-26T06:20:50;0.50;99.90
15455;DHT22;21057;51.024;7.540;2023-02-26T06:23:17;0.60;99.90
15455;DHT22;21057;51.024;7.540;2023-02-26T06:25:44;0.60;99.90
15455;DHT22;21057;51.024;7.540;2023-02-26T06:28:11;0.60;99.90
15455;DHT22;21057;51.024;7.540;2023-02-26T06:30:37;0.50;99.90
15455;DHT22;21057;51.024;7.540;2023-02-26T06:33:04;0.60;99.90
15455;DHT22;21057;51.024;7.540;2023-02-26T06:35:31;0.50;99.90
15455;DHT22;21057;51.024;7.540;2023-02-26T06:37:59;0.50;99.90
15455;DHT22;21057;51.024;7.540;2023-02-26T06:40:26;0.50;99.90
15455;DHT22;21057;51.024;7.540;2023-02-26T06:42:53;0.40;99.90
15455;DHT22;21057;51.024;7.540;2023-02-26T06:45:20;0.60;99.90
15455;DHT22;21057;51.024;7.540;2023-02-26T06:47:52;0.60;99.90
15455;DHT22;21057;51.024;7.540;2023-02-26T06:50:19;0.70;99.90
15455;DHT22;21057;51.024;7.540;2023-02-26T06:52:55;0.70;99.90
15455;DHT22;21057;51.024;7.540;2023-02-26T06:55:23;0.70;99.90
15455;DHT22;21057;51.024;7.540;2023-02-26T06:57:52;0.70;99.90
15455;DHT22;21057;51.024;7.540;2023-02-26T07:00:20;0.70;99.90
15455;DHT22;21057;51.024;7.540;2023-02-26T07:02:48;0.70;99.90
15455;DHT22;21057;51.024;7.540;2023-02-26T07:05:15;0.50;99.90
15455;DHT22;21057;51.024;7.540;2023-02-26T07:07:42;0.50;99.90
15455;DHT22;21057;51.024;7.540;2023-02-26T07:10:16;0.50;99.90
15455;DHT22;21057;51.024;7.540;2023-02-26T07:12:45;0.70;99.90
15455;DHT22;21057;51.024;7.540;2023-02-26T07:15:13;0.60;99.90
15455;DHT22;21057;51.024;7.540;2023-02-26T07:17:40;0.70;99.90
15455;DHT22;21057;51.024;7.540;2023-02-26T07:20:15;0.50;99.90
15455;DHT22;21057;51.024;7.540;2023-02-26T07:22:43;0.50;99.90
15455;DHT22;21057;51.024;7.540;2023-02-26T07:25:11;0.50;99.90
15455;DHT22;21057;51.024;7.540;2023-02-26T07:27:38;0.50;99.90
15455;DHT22;21057;51.024;7.540;2023-02-26T07:30:08;0.50;99.90
15455;DHT22;21057;51.024;7.540;2023-02-26T07:32:36;0.30;99.90
15455;DHT22;21057;51.024;7.540;2023-02-26T07:35:04;0.60;99.90
15455;DHT22;21057;51.024;7.540;2023-02-26T07:37:33;0.60;99.90
15455;DHT22;21057;51.024;7.540;2023-02-26T07:40:00;0.90;99.90
15455;DHT22;21057;51.024;7.540;2023-02-26T07:42:26;1.00;99.90
15455;DHT22;21057;51.024;7.540;2023-02-26T07:44:57;1.20;99.90
15455;DHT22;21057;51.024;7.540;2023-02-26T07:47:26;1.30;99.90
15455;DHT22;21057;51.024;7.540;2023-02-26T07:49:55;1.30;99.90
15455;DHT22;21057;51.024;7.540;2023-02-26T07:52:22;1.30;99.90
15455;DHT22;21057;51.024;7.540;2023-02-26T07:54:49;1.40;99.90
15455;DHT22;21057;51.024;7.540;2023-02-26T07:57:16;1.60;99.90
15455;DHT22;21057;51.024;7.540;2023-02-26T07:59:42;1.70;99.90
15455;DHT22;21057;51.024;7.540;2023-02-26T08:02:10;1.40;99.90
15455;DHT22;21057;51.024;7.540;2023-02-26T08:04:43;1.50;99.90
15455;DHT22;21057;51.024;7.540;2023-02-26T08:07:16;1.60;99.90
15455;DHT22;21057;51.024;7.540;2023-02-26T08:09:44;1.50;99.90
15455;DHT22;21057;51.024;7.540;2023-02-26T08:12:11;1.70;99.90
15455;DHT22;21057;51.024;7.540;2023-02-26T08:14:38;1.70;99.90
15455;DHT22;21057;51.024;7.540;2023-02-26T08:17:06;1.50;99.90
15455;DHT22;21057;51.024;7.540;2023-02-26T08:19:33;1.20;99.90
15455;DHT22;21057;51.024;7.540;2023-02-26T08:22:07;0.90;99.90
15455;DHT22;21057;51.024;7.540;2023-02-26T08:24:35;0.90;99.90
15455;DHT22;21057;51.024;7.540;2023-02-26T08:27:09;1.00;99.90
15455;DHT22;21057;51.024;7.540;2023-02-26T08:29:36;1.20;99.90
15455;DHT22;21057;51.024;7.540;2023-02-26T08:32:09;1.20;99.90
15455;DHT22;21057;51.024;7.540;2023-02-26T08:34:36;1.20;99.90
15455;DHT22;21057;51.024;7.540;2023-02-26T08:37:03;1.10;99.90
15455;DHT22;21057;51.024;7.540;2023-02-26T08:39:31;1.00;99.90
15455;DHT22;21057;51.024;7.540;2023-02-26T08:42:03;0.90;99.90
15455;DHT22;21057;51.024;7.540;2023-02-26T08:44:29;0.90;99.90
15455;DHT22;21057;51.024;7.540;2023-02-26T08:46:56;1.10;99.90
15455;DHT22;21057;51.024;7.540;2023-02-26T08:49:23;1.10;99.90
15455;DHT22;21057;51.024;7.540;2023-02-26T08:51:50;1.20;99.90
15455;DHT22;21057;51.024;7.540;2023-02-26T08:54:17;1.00;99.90
15455;DHT22;21057;51.024;7.540;2023-02-26T08:56:45;1.10;99.90
15455;DHT22;21057;51.024;7.540;2023-02-26T08:59:12;1.20;99.90
15455;DHT22;21057;51.024;7.540;2023-02-26T09:01:39;1.30;99.90
15455;DHT22;21057;51.024;7.540;2023-02-26T09:04:06;1.40;99.90
15455;DHT22;21057;51.024;7.540;2023-02-26T09:06:33;1.50;99.90
15455;DHT22;21057;51.024;7.540;2023-02-26T09:09:16;1.50;99.90
15455;DHT22;21057;51.024;7.540;2023-02-26T09:11:51;1.80;99.90
15455;DHT22;21057;51.024;7.540;2023-02-26T09:14:17;1.80;99.90
15455;DHT22;21057;51.024;7.540;2023-02-26T09:16:44;2.00;99.90
15455;DHT22;21057;51.024;7.540;2023-02-26T09:19:11;1.80;99.90
15455;DHT22;21057;51.024;7.540;2023-02-26T09:21:38;1.70;99.90
15455;DHT22;21057;51.024;7.540;2023-02-26T09:24:06;1.80;99.90
15455;DHT22;21057;51.024;7.540;2023-02-26T09:26:34;1.90;99.90
15455;DHT22;21057;51.024;7.540;2023-02-26T09:29:04;2.00;99.90
15455;DHT22;21057;51.024;7.540;2023-02-26T09:31:31;2.00;99.90
15455;DHT22;21057;51.024;7.540;2023-02-26T09:33:58;1.90;99.90
15455;DHT22;21057;51.024;7.540;2023-02-26T09:36:26;1.90;99.90
15455;DHT22;21057;51.024;7.540;2023-02-26T09:38:53;2.10;99.90
15455;DHT22;21057;51.024;7.540;2023-02-26T09:41:23;1.80;99.90
15455;DHT22;21057;51.024;7.540;2023-02-26T09:44:17;1.80;99.90
15455;DHT22;21057;51.024;7.540;2023-02-26T09:47:02;1.90;99.90
15455;DHT22;21057;51.024;7.540;2023-02-26T09:49:45;2.00;99.90
15455;DHT22;21057;51.024;7.540;2023-02-26T09:52:19;2.10;99.90
15455;DHT22;21057;51.024;7.540;2023-02-26T09:54:52;2.20;99.90
15455;DHT22;21057;51.024;7.540;2023-02-26T09:57:30;2.50;99.90
15455;DHT22;21057;51.024;7.540;2023-02-26T09:59:59;3.10;99.90
15455;DHT22;21057;51.024;7.540;2023-02-26T10:02:36;3.80;99.90
15455;DHT22;21057;51.024;7.540;2023-02-26T10:05:20;3.50;99.90
15455;DHT22;21057;51.024;7.540;2023-02-26T10:07:57;3.10;99.90
15455;DHT22;21057;51.024;7.540;2023-02-26T10:10:34;2.70;99.90
15455;DHT22;21057;51.024;7.540;2023-02-26T10:13:05;3.10;99.90
15455;DHT22;21057;51.024;7.540;2023-02-26T10:15:40;3.00;99.90
15455;DHT22;21057;51.024;7.540;2023-02-26T10:18:15;3.10;99.90
15455;DHT22;21057;51.024;7.540;2023-02-26T10:20:51;3.10;99.90
15455;DHT22;21057;51.024;7.540;2023-02-26T10:23:23;3.20;99.90
15455;DHT22;21057;51.024;7.540;2023-02-26T10:26:01;3.50;99.90
15455;DHT22;21057;51.024;7.540;2023-02-26T10:28:41;3.60;99.90
15455;DHT22;21057;51.024;7.540;2023-02-26T10:31:23;3.70;99.90
15455;DHT22;21057;51.024;7.540;2023-02-26T10:34:10;4.40;99.90
15455;DHT22;21057;51.024;7.540;2023-02-26T10:36:45;6.10;99.90
15455;DHT22;21057;51.024;7.540;2023-02-26T10:39:26;7.30;98.90
15455;DHT22;21057;51.024;7.540;2023-02-26T10:41:58;7.70;94.40
15455;DHT22;21057;51.024;7.540;2023-02-26T10:44:31;7.30;95.30
15455;DHT22;21057;51.024;7.540;2023-02-26T10:47:14;7.00;94.30
15455;DHT22;21057;51.024;7.540;2023-02-26T10:49:51;7.40;96.40
15455;DHT22;21057;51.024;7.540;2023-02-26T10:52:22;8.50;93.30
15455;DHT22;21057;51.024;7.540;2023-02-26T10:55:22;9.40;91.20
15455;DHT22;21057;51.024;7.540;2023-02-26T10:57:54;9.50;86.20
15455;DHT22;21057;51.024;7.540;2023-02-26T11:00:22;9.40;85.40
15455;DHT22;21057;51.024;7.540;2023-02-26T11:02:52;8.60;83.40
15455;DHT22;21057;51.024;7.540;2023-02-26T11:05:22;8.20;86.10
15455;DHT22;21057;51.024;7.540;2023-02-26T11:07:55;7.50;89.90
15455;DHT22;21057;51.024;7.540;2023-02-26T11:10:25;6.50;91.70
15455;DHT22;21057;51.024;7.540;2023-02-26T11:12:52;6.30;92.90
15455;DHT22;21057;51.024;7.540;2023-02-26T11:15:21;5.70;95.10
15455;DHT22;21057;51.024;7.540;2023-02-26T11:17:55;5.40;96.50
15455;DHT22;21057;51.024;7.540;2023-02-26T11:20:32;4.90;96.80
15455;DHT22;21057;51.024;7.540;2023-02-26T11:23:02;4.30;98.40
15455;DHT22;21057;51.024;7.540;2023-02-26T11:25:31;4.00;99.90
15455;DHT22;21057;51.024;7.540;2023-02-26T11:28:01;4.30;99.50
15455;DHT22;21057;51.024;7.540;2023-02-26T11:30:32;4.70;99.80
15455;DHT22;21057;51.024;7.540;2023-02-26T11:33:12;4.90;98.30
15455;DHT22;21057;51.024;7.540;2023-02-26T11:35:46;4.70;97.70
15455;DHT22;21057;51.024;7.540;2023-02-26T11:38:18;4.60;99.90
15455;DHT22;21057;51.024;7.540;2023-02-26T11:40:48;4.70;98.20
15455;DHT22;21057;51.024;7.540;2023-02-26T11:43:18;4.50;98.40
15455;DHT22;21057;51.024;7.540;2023-02-26T11:45:50;4.10;99.20
15455;DHT22;21057;51.024;7.540;2023-02-26T11:48:23;4.10;99.90
15455;DHT22;21057;51.024;7.540;2023-02-26T11:50:55;4.00;99.00
15455;DHT22;21057;51.024;7.540;2023-02-26T11:53:25;4.20;99.90
15455;DHT22;21057;51.024;7.540;2023-02-26T11:55:59;4.30;99.00
15455;DHT22;21057;51.024;7.540;2023-02-26T11:58:29;4.30;97.70
15455;DHT22;21057;51.024;7.540;2023-02-26T12:01:01;4.40;98.30
15455;DHT22;21057;51.024;7.540;2023-02-26T12:03:32;4.40;98.70
15455;DHT22;21057;51.024;7.540;2023-02-26T12:06:00;4.50;98.90
15455;DHT22;21057;51.024;7.540;2023-02-26T12:08:38;4.10;98.50
15455;DHT22;21057;51.024;7.540;2023-02-26T12:11:34;3.80;99.90
15455;DHT22;21057;51.024;7.540;2023-02-26T12:14:15;3.80;99.60
15455;DHT22;21057;51.024;7.540;2023-02-26T12:16:54;3.60;99.90
15455;DHT22;21057;51.024;7.540;2023-02-26T12:19:32;3.60;99.80
15455;DHT22;21057;51.024;7.540;2023-02-26T12:22:15;3.60;99.60
15455;DHT22;21057;51.024;7.540;2023-02-26T12:25:02;3.70;99.80
15455;DHT22;21057;51.024;7.540;2023-02-26T12:27:45;3.80;99.90
15455;DHT22;21057;51.024;7.540;2023-02-26T12:30:26;3.80;99.80
15455;DHT22;21057;51.024;7.540;2023-02-26T12:33:09;3.60;98.60
15455;DHT22;21057;51.024;7.540;2023-02-26T12:35:56;3.70;99.90
15455;DHT22;21057;51.024;7.540;2023-02-26T12:38:29;3.60;99.90
15455;DHT22;21057;51.024;7.540;2023-02-26T12:41:32;3.70;99.90
15455;DHT22;21057;51.024;7.540;2023-02-26T12:44:14;3.70;99.50
15455;DHT22;21057;51.024;7.540;2023-02-26T12:46:52;3.70;99.90
15455;DHT22;21057;51.024;7.540;2023-02-26T12:49:34;4.00;99.90
15455;DHT22;21057;51.024;7.540;2023-02-26T12:52:27;4.00;99.20
15455;DHT22;21057;51.024;7.540;2023-02-26T12:55:20;4.00;99.60
15455;DHT22;21057;51.024;7.540;2023-02-26T12:58:03;4.30;99.90
15455;DHT22;21057;51.024;7.540;2023-02-26T13:00:45;4.70;99.20
15455;DHT22;21057;51.024;7.540;2023-02-26T13:03:52;4.50;98.20
15455;DHT22;21057;51.024;7.540;2023-02-26T13:06:58;4.20;99.90
15455;DHT22;21057;51.024;7.540;2023-02-26T13:09:34;4.00;99.90
15455;DHT22;21057;51.024;7.540;2023-02-26T13:12:22;3.80;99.50
15455;DHT22;21057;51.024;7.540;2023-02-26T13:14:58;3.80;99.90
15455;DHT22;21057;51.024;7.540;2023-02-26T13:17:34;3.90;99.90
15455;DHT22;21057;51.024;7.540;2023-02-26T13:20:18;3.90;99.90
15455;DHT22;21057;51.024;7.540;2023-02-26T13:22:58;3.80;99.70
15455;DHT22;21057;51.024;7.540;2023-02-26T13:25:34;4.00;99.90
15455;DHT22;21057;51.024;7.540;2023-02-26T13:28:04;4.10;99.90
15455;DHT22;21057;51.024;7.540;2023-02-26T13:30:48;4.00;99.90
15455;DHT22;21057;51.024;7.540;2023-02-26T13:33:18;3.80;99.90
15455;DHT22;21057;51.024;7.540;2023-02-26T13:35:53;3.80;99.90
15455;DHT22;21057;51.024;7.540;2023-02-26T13:38:25;4.10;99.90
15455;DHT22;21057;51.024;7.540;2023-02-26T13:41:04;3.90;98.80
15455;DHT22;21057;51.024;7.540;2023-02-26T13:43:49;3.90;99.90
15455;DHT22;21057;51.024;7.540;2023-02-26T13:46:38;3.80;99.90
15455;DHT22;21057;51.024;7.540;2023-02-26T13:49:11;3.80;99.90
15455;DHT22;21057;51.024;7.540;2023-02-26T13:51:43;3.70;99.90
15455;DHT22;21057;51.024;7.540;2023-02-26T13:54:31;4.00;99.90
15455;DHT22;21057;51.024;7.540;2023-02-26T13:57:32;4.60;98.50
15455;DHT22;21057;51.024;7.540;2023-02-26T14:00:06;5.70;97.80
15455;DHT22;21057;51.024;7.540;2023-02-26T14:02:50;6.50;96.40
15455;DHT22;21057;51.024;7.540;2023-02-26T14:08:42;7.70;89.40
15455;DHT22;21057;51.024;7.540;2023-02-26T14:11:33;7.40;90.50
15455;DHT22;21057;51.024;7.540;2023-02-26T14:14:16;7.30;90.80
15455;DHT22;21057;51.024;7.540;2023-02-26T14:17:18;7.60;90.00
15455;DHT22;21057;51.024;7.540;2023-02-26T14:20:16;7.30;85.00
15455;DHT22;21057;51.024;7.540;2023-02-26T14:22:47;7.60;90.30
15455;DHT22;21057;51.024;7.540;2023-02-26T14:25:18;8.10;86.60
15455;DHT22;21057;51.024;7.540;2023-02-26T14:28:18;8.30;84.30
15455;DHT22;21057;51.024;7.540;2023-02-26T14:30:49;8.40;81.70
15455;DHT22;21057;51.024;7.540;2023-02-26T14:33:28;8.60;83.20
15455;DHT22;21057;51.024;7.540;2023-02-26T14:35:56;8.70;78.80
15455;DHT22;21057;51.024;7.540;2023-02-26T14:38:27;7.90;79.80
15455;DHT22;21057;51.024;7.540;2023-02-26T14:41:01;7.70;83.10
15455;DHT22;21057;51.024;7.540;2023-02-26T14:43:34;7.70;82.40
15455;DHT22;21057;51.024;7.540;2023-02-26T14:46:15;7.90;83.10
15455;DHT22;21057;51.024;7.540;2023-02-26T14:48:42;7.50;79.30
15455;DHT22;21057;51.024;7.540;2023-02-26T14:51:15;6.80;80.90
15455;DHT22;21057;51.024;7.540;2023-02-26T14:54:01;6.40;82.90
15455;DHT22;21057;51.024;7.540;2023-02-26T14:56:38;5.80;86.00
15455;DHT22;21057;51.024;7.540;2023-02-26T14:59:21;5.40;92.10
15455;DHT22;21057;51.024;7.540;2023-02-26T15:02:00;5.40;92.20
15455;DHT22;21057;51.024;7.540;2023-02-26T15:04:48;5.10;91.40
15455;DHT22;21057;51.024;7.540;2023-02-26T15:07:30;4.70;91.40
15455;DHT22;21057;51.024;7.540;2023-02-26T15:10:21;4.50;90.70
15455;DHT22;21057;51.024;7.540;2023-02-26T15:13:18;4.20;92.70
15455;DHT22;21057;51.024;7.540;2023-02-26T15:15:53;4.10;94.80
15455;DHT22;21057;51.024;7.540;2023-02-26T15:18:46;4.20;94.70
15455;DHT22;21057;51.024;7.540;2023-02-26T15:21:21;4.30;93.00
15455;DHT22;21057;51.024;7.540;2023-02-26T15:24:10;4.30;94.60
15455;DHT22;21057;51.024;7.540;2023-02-26T15:26:47;4.40;96.40
15455;DHT22;21057;51.024;7.540;2023-02-26T15:29:16;4.10;95.00
15455;DHT22;21057;51.024;7.540;2023-02-26T15:31:56;3.60;94.60
15455;DHT22;21057;51.024;7.540;2023-02-26T15:34:29;3.70;96.40
15455;DHT22;21057;51.024;7.540;2023-02-26T15:37:19;3.50;95.40
15455;DHT22;21057;51.024;7.540;2023-02-26T15:39:48;3.40;96.80
15455;DHT22;21057;51.024;7.540;2023-02-26T15:42:19;3.40;97.20
15455;DHT22;21057;51.024;7.540;2023-02-26T15:44:47;3.50;96.70
15455;DHT22;21057;51.024;7.540;2023-02-26T15:47:26;3.50;97.80
15455;DHT22;21057;51.024;7.540;2023-02-26T15:49:56;3.40;97.20
15455;DHT22;21057;51.024;7.540;2023-02-26T15:52:25;3.40;98.70
15455;DHT22;21057;51.024;7.540;2023-02-26T15:54:57;3.40;97.70
15455;DHT22;21057;51.024;7.540;2023-02-26T15:57:25;3.30;97.50
15455;DHT22;21057;51.024;7.540;2023-02-26T16:00:08;3.20;97.50
15455;DHT22;21057;51.024;7.540;2023-02-26T16:02:48;3.00;97.60
15455;DHT22;21057;51.024;7.540;2023-02-26T16:05:19;3.10;98.20
15455;DHT22;21057;51.024;7.540;2023-02-26T16:07:46;3.10;99.40
15455;DHT22;21057;51.024;7.540;2023-02-26T16:10:16;3.20;97.80
15455;DHT22;21057;51.024;7.540;2023-02-26T16:12:54;3.20;98.60
15455;DHT22;21057;51.024;7.540;2023-02-26T16:15:28;3.10;98.90
15455;DHT22;21057;51.024;7.540;2023-02-26T16:17:55;3.00;99.90
15455;DHT22;21057;51.024;7.540;2023-02-26T16:20:26;3.00;99.60
15455;DHT22;21057;51.024;7.540;2023-02-26T16:23:05;2.90;99.80
15455;DHT22;21057;51.024;7.540;2023-02-26T16:25:37;2.70;98.40
15455;DHT22;21057;51.024;7.540;2023-02-26T16:28:10;2.70;99.60